Time;durP1;ratioP1;P1;durP2;ratioP2;P2;SDS_P1;SDS_P2;PMS_P1;PMS_P2;Temp;Humidity;BMP_temperature;BMP_pressure;BME280_temperature;BME280_humidity;BME280_pressure;Samples;Min_cycle;Max_cycle;Signal;HPM_P1;HPM_P2
2023/08/21 00:00:12;;;;;;;;;;;29.50;93.20;29.30;99882.00;;;;349974;27;91333;-92
2023/08/21 00:00:23;;;;;;;;;;;29.50;93.10;29.40;99877.00;;;;344850;28;83391;-92
2023/08/21 00:00:35;;;;;;;;;;;29.50;93.10;29.40;99877.00;;;;344250;28;90440;-92
2023/08/21 00:00:48;;;;;;;;;;;29.50;93.00;29.40;99881.00;;;;345841;28;82677;-93
2023/08/21 00:01:00;;;;;;;;;;;29.50;93.00;29.50;99884.00;;;;346722;27;91826;-92
2023/08/21 00:01:12;;;;;;;;;;;29.50;93.00;29.50;99877.00;;;;347579;28;83434;-92
2023/08/21 00:01:23;;;;;;;;;;;29.50;93.00;29.40;99872.00;;;;348389;27;89334;-93
2023/08/21 00:01:35;;;;;;;;;;;29.50;93.00;29.40;99872.00;;;;347568;28;83496;-93
2023/08/21 00:01:47;;;;;;;;;;;29.50;93.10;29.50;99877.00;;;;345593;28;90244;-93
2023/08/21 00:01:59;;;;;;;;;;;29.50;93.00;29.40;99871.00;;;;345909;28;82533;-93
2023/08/21 00:02:11;;;;;;;;;;;29.50;93.10;29.30;99872.00;;;;348417;27;89552;-93
2023/08/21 00:02:25;;;;;;;;;;;29.40;93.10;29.30;99876.00;;;;348756;27;83632;-95
2023/08/21 00:02:37;;;;;;;;;;;29.50;93.10;29.40;99872.00;;;;346552;27;89988;-94
2023/08/21 00:02:49;;;;;;;;;;;29.50;93.10;29.40;99870.00;;;;347696;28;83323;-94
2023/08/21 00:03:01;;;;;;;;;;;29.50;93.20;29.40;99876.00;;;;348031;27;90537;-92
2023/08/21 00:03:13;;;;;;;;;;;29.50;93.20;29.40;99883.00;;;;348254;27;82748;-92
2023/08/21 00:03:25;;;;;;;;;;;29.50;93.10;29.50;99872.00;;;;346171;28;91587;-91
2023/08/21 00:03:37;;;;;;;;;;;29.50;93.00;29.50;99877.00;;;;348766;27;83542;-92
2023/08/21 00:03:49;;;;;;;;;;;29.50;93.00;29.50;99883.00;;;;348528;27;91663;-92
2023/08/21 00:04:01;;;;;;;;;;;29.50;93.00;29.50;99882.00;;;;347339;27;83500;-91
2023/08/21 00:04:13;;;;;;;;;;;29.50;93.10;29.40;99884.00;;;;347177;28;91621;-92
2023/08/21 00:04:25;;;;;;;;;;;29.50;93.00;29.30;99878.00;;;;349015;27;83401;-91
2023/08/21 00:04:37;;;;;;;;;;;29.50;93.10;29.40;99878.00;;;;346885;28;90529;-91
2023/08/21 00:04:48;;;;;;;;;;;29.50;93.10;29.50;99883.00;;;;346063;28;82556;-92
2023/08/21 00:05:00;;;;;;;;;;;29.50;93.00;29.40;99868.00;;;;345606;28;89680;-92
2023/08/21 00:05:12;;;;;;;;;;;29.50;93.10;29.40;99875.00;;;;346847;28;82632;-92
2023/08/21 00:05:24;;;;;;;;;;;29.50;93.10;29.40;99875.00;;;;346910;28;89726;-93
2023/08/21 00:05:36;;;;;;;;;;;29.50;93.00;29.40;99888.00;;;;347538;28;83475;-93
2023/08/21 00:05:47;;;;;;;;;;;29.50;93.00;29.50;99881.00;;;;345516;28;91671;-93
2023/08/21 00:05:59;;;;;;;;;;;29.50;93.10;29.50;99872.00;;;;346216;28;83344;-93
2023/08/21 00:06:11;;;;;;;;;;;29.50;93.10;29.40;99880.00;;;;345542;28;90652;-91
2023/08/21 00:06:23;;;;;;;;;;;29.50;93.10;29.40;99873.00;;;;347641;28;82481;-93
2023/08/21 00:06:35;;;;;;;;;;;29.50;93.20;29.20;99875.00;;;;347139;28;90370;-92
2023/08/21 00:06:46;;;;;;;;;;;29.50;93.10;29.20;99880.00;;;;346221;28;83382;-92
2023/08/21 00:06:58;;;;;;;;;;;29.50;93.10;29.30;99881.00;;;;347199;28;91665;-92
2023/08/21 00:07:12;;;;;;;;;;;29.50;93.10;29.40;99882.00;;;;346250;28;82555;-92
2023/08/21 00:07:23;;;;;;;;;;;29.50;93.10;29.40;99882.00;;;;345643;28;91029;-92
2023/08/21 00:07:35;;;;;;;;;;;29.50;93.10;29.30;99880.00;;;;346179;28;83375;-93
2023/08/21 00:07:50;;;;;;;;;;;29.40;93.10;29.30;99870.00;;;;347195;28;92438;-93
2023/08/21 00:08:02;;;;;;;;;;;29.50;93.30;29.40;99877.00;;;;346011;28;82554;-93
2023/08/21 00:08:14;;;;;;;;;;;29.50;93.20;29.40;99880.00;;;;345255;28;89661;-93
2023/08/21 00:08:26;;;;;;;;;;;29.50;93.10;29.30;99882.00;;;;347432;28;82610;-93
2023/08/21 00:08:38;;;;;;;;;;;29.50;93.20;29.30;99877.00;;;;345771;28;90271;-94
2023/08/21 00:08:50;;;;;;;;;;;29.50;93.20;29.20;99873.00;;;;347609;28;83406;-93
2023/08/21 00:09:02;;;;;;;;;;;29.50;93.20;29.30;99871.00;;;;345755;28;90908;-93
2023/08/21 00:09:14;;;;;;;;;;;29.40;93.20;29.30;99877.00;;;;347389;28;83501;-93
2023/08/21 00:09:25;;;;;;;;;;;29.50;93.20;29.40;99871.00;;;;346872;28;91076;-93
2023/08/21 00:09:37;;;;;;;;;;;29.50;93.10;29.30;99875.00;;;;344793;28;83354;-93
2023/08/21 00:09:50;;;;;;;;;;;29.50;93.10;29.40;99879.00;;;;345645;28;92475;-93
2023/08/21 00:10:02;;;;;;;;;;;29.40;93.10;29.40;99874.00;;;;346230;28;83405;-93
2023/08/21 00:10:14;;;;;;;;;;;29.40;93.00;29.30;99878.00;;;;346540;28;90841;-93
2023/08/21 00:10:26;;;;;;;;;;;29.50;93.10;29.20;99877.00;;;;345488;28;83582;-93
2023/08/21 00:10:38;;;;;;;;;;;29.40;93.20;29.20;99878.00;;;;345500;28;90841;-92
2023/08/21 00:10:50;;;;;;;;;;;29.40;93.30;29.20;99873.00;;;;347392;27;83451;-93
2023/08/21 00:11:02;;;;;;;;;;;29.40;93.20;29.40;99872.00;;;;348429;27;89622;-93
2023/08/21 00:11:14;;;;;;;;;;;29.40;93.20;29.40;99868.00;;;;345993;28;82625;-93
2023/08/21 00:11:25;;;;;;;;;;;29.40;93.10;29.40;99873.00;;;;345731;28;89591;-93
2023/08/21 00:11:37;;;;;;;;;;;29.40;93.10;29.40;99874.00;;;;347470;28;82563;-93
2023/08/21 00:11:49;;;;;;;;;;;29.50;93.20;29.40;99872.00;;;;343996;28;91439;-93
2023/08/21 00:12:01;;;;;;;;;;;29.40;93.20;29.40;99880.00;;;;344661;28;82579;-93
2023/08/21 00:12:13;;;;;;;;;;;29.40;93.20;29.50;99886.00;;;;346509;27;89512;-93
2023/08/21 00:12:24;;;;;;;;;;;29.50;93.20;29.40;99875.00;;;;347736;27;83472;-94
2023/08/21 00:12:36;;;;;;;;;;;29.50;93.20;29.20;99875.00;;;;347159;28;90251;-93
2023/08/21 00:12:49;;;;;;;;;;;29.40;93.30;29.20;99873.00;;;;347457;27;83416;-93
2023/08/21 00:13:01;;;;;;;;;;;29.40;93.30;29.10;99882.00;;;;347192;28;90262;-94
2023/08/21 00:13:13;;;;;;;;;;;29.40;93.30;29.10;99875.00;;;;345965;28;82560;-93
2023/08/21 00:13:25;;;;;;;;;;;29.40;93.30;29.20;99875.00;;;;345598;28;91400;-94
2023/08/21 00:13:37;;;;;;;;;;;29.40;93.30;29.10;99872.00;;;;348787;27;83378;-93
2023/08/21 00:13:49;;;;;;;;;;;29.40;93.30;29.20;99879.00;;;;345760;28;92544;-93
2023/08/21 00:14:01;;;;;;;;;;;29.40;93.30;29.30;99876.00;;;;346204;28;83487;-93
2023/08/21 00:14:13;;;;;;;;;;;29.30;93.20;29.30;99872.00;;;;345402;28;90419;-93
2023/08/21 00:14:24;;;;;;;;;;;29.40;93.20;29.20;99873.00;;;;345232;28;83354;-93
2023/08/21 00:14:37;;;;;;;;;;;29.40;93.30;29.10;99877.00;;;;346981;28;91916;-93
2023/08/21 00:14:49;;;;;;;;;;;29.40;93.40;29.10;99874.00;;;;347666;28;82503;-93
2023/08/21 00:15:00;;;;;;;;;;;29.30;93.30;29.20;99874.00;;;;345696;28;92014;-93
2023/08/21 00:15:12;;;;;;;;;;;29.30;93.20;29.20;99880.00;;;;346124;28;83419;-93
2023/08/21 00:15:24;;;;;;;;;;;29.30;93.40;29.30;99879.00;;;;347230;28;90461;-94
2023/08/21 00:15:37;;;;;;;;;;;29.40;93.40;29.30;99877.00;;;;347476;27;83399;-93
2023/08/21 00:15:49;;;;;;;;;;;29.30;93.30;29.40;99871.00;;;;344302;28;91444;-93
2023/08/21 00:16:01;;;;;;;;;;;29.30;93.30;29.30;99877.00;;;;348829;27;82573;-93
2023/08/21 00:16:13;;;;;;;;;;;29.40;93.30;29.20;99876.00;;;;348284;27;90570;-92
2023/08/21 00:16:26;;;;;;;;;;;29.40;93.30;29.20;99876.00;;;;347752;27;82534;-93
2023/08/21 00:19:08;;;;;;;;;;;29.30;93.30;29.30;99875.00;;;;217586;27;90696;-85
2023/08/21 00:19:20;;;;;;;;;;;29.30;93.40;29.20;99876.00;;;;348348;27;83584;-92
2023/08/21 00:19:32;;;;;;;;;;;29.30;93.40;29.20;99873.00;;;;346315;28;90186;-92
2023/08/21 00:19:44;;;;;;;;;;;29.30;93.40;29.20;99872.00;;;;344446;28;83535;-93
2023/08/21 00:19:55;;;;;;;;;;;29.30;93.30;29.30;99874.00;;;;345807;28;88345;-92
2023/08/21 00:20:09;;;;;;;;;;;29.30;93.30;29.30;99875.00;;;;346135;28;83494;-92
2023/08/21 00:20:21;;;;;;;;;;;29.30;93.30;29.40;99867.00;;;;345088;28;89100;-92
2023/08/21 00:20:32;;;;;;;;;;;29.30;93.40;29.40;99874.00;;;;346314;28;83536;-93
2023/08/21 00:20:44;;;;;;;;;;;29.30;93.40;29.30;99869.00;;;;341737;28;90846;-92
2023/08/21 00:20:56;;;;;;;;;;;29.30;93.40;29.30;99878.00;;;;343496;28;83461;-92
2023/08/21 00:21:08;;;;;;;;;;;29.30;93.40;29.30;99870.00;;;;344071;28;92674;-92
2023/08/21 00:21:20;;;;;;;;;;;29.30;93.30;29.40;99868.00;;;;345317;28;83528;-92
2023/08/21 00:21:31;;;;;;;;;;;29.30;93.30;29.20;99878.00;;;;343992;28;91820;-91
2023/08/21 00:21:43;;;;;;;;;;;29.30;93.40;29.10;99869.00;;;;344827;28;83490;-92
2023/08/21 00:21:55;;;;;;;;;;;29.30;93.40;29.10;99870.00;;;;341694;28;90686;-92
2023/08/21 00:22:07;;;;;;;;;;;29.30;93.40;29.30;99868.00;;;;344874;28;82425;-91
2023/08/21 00:22:19;;;;;;;;;;;29.30;93.40;29.30;99866.00;;;;345743;28;91800;-92
2023/08/21 00:22:31;;;;;;;;;;;29.30;93.40;29.30;99875.00;;;;343377;28;82599;-92
2023/08/21 00:22:42;;;;;;;;;;;29.30;93.40;29.30;99872.00;;;;344428;28;90277;-92
2023/08/21 00:22:54;;;;;;;;;;;29.30;93.40;29.30;99874.00;;;;344617;28;82473;-92
2023/08/21 00:23:06;;;;;;;;;;;29.30;93.30;29.40;99869.00;;;;344031;28;92602;-91
2023/08/21 00:23:18;;;;;;;;;;;29.30;93.30;29.40;99866.00;;;;346106;28;83385;-92
2023/08/21 00:23:31;;;;;;;;;;;29.30;93.30;29.40;99867.00;;;;344483;28;90526;-92
2023/08/21 00:23:43;;;;;;;;;;;29.30;93.30;29.20;99871.00;;;;346287;28;83349;-92
2023/08/21 00:23:55;;;;;;;;;;;29.30;93.40;29.20;99869.00;;;;343980;28;90743;-91
2023/08/21 00:24:06;;;;;;;;;;;29.40;93.40;29.20;99867.00;;;;346114;28;83426;-92
2023/08/21 00:24:18;;;;;;;;;;;29.30;93.40;29.20;99866.00;;;;343088;28;90411;-92
2023/08/21 00:24:30;;;;;;;;;;;29.30;93.40;29.30;99868.00;;;;344800;28;83404;-92
2023/08/21 00:24:42;;;;;;;;;;;29.30;93.40;29.30;99868.00;;;;344368;28;90544;-93
2023/08/21 00:24:54;;;;;;;;;;;29.30;93.30;29.40;99869.00;;;;341662;28;85477;-93
2023/08/21 00:25:06;;;;;;;;;;;29.30;93.30;29.20;99870.00;;;;344316;28;92099;-92
2023/08/21 00:25:20;;;;;;;;;;;29.40;93.40;29.10;99870.00;;;;343487;28;83488;-92
2023/08/21 00:25:33;;;;;;;;;;;29.30;93.50;29.10;99873.00;;;;343124;28;90374;-92
2023/08/21 00:25:46;;;;;;;;;;;29.30;93.50;29.10;99869.00;;;;344776;28;83582;-92
2023/08/21 00:25:58;;;;;;;;;;;29.30;93.50;29.20;99868.00;;;;344319;28;91761;-92
2023/08/21 00:26:10;;;;;;;;;;;29.30;93.40;29.20;99871.00;;;;345876;28;83530;-92
2023/08/21 00:26:21;;;;;;;;;;;29.30;93.40;29.20;99867.00;;;;342795;28;90665;-92
2023/08/21 00:26:33;;;;;;;;;;;29.30;93.40;29.20;99868.00;;;;345722;28;83940;-91
2023/08/21 00:26:45;;;;;;;;;;;29.30;93.40;29.10;99870.00;;;;345712;28;88126;-92
2023/08/21 00:26:57;;;;;;;;;;;29.30;93.50;29.10;99871.00;;;;342080;28;83412;-92
2023/08/21 00:27:09;;;;;;;;;;;29.30;93.60;29.20;99869.00;;;;344214;28;92421;-92
2023/08/21 00:27:21;;;;;;;;;;;29.30;93.50;29.20;99869.00;;;;343192;28;82557;-92
2023/08/21 00:27:32;;;;;;;;;;;29.30;93.40;29.20;99869.00;;;;342822;28;89089;-92
2023/08/21 00:27:44;;;;;;;;;;;29.30;93.40;29.20;99868.00;;;;344868;28;83321;-92
2023/08/21 00:27:56;;;;;;;;;;;29.30;93.40;29.20;99871.00;;;;342998;28;91430;-92
2023/08/21 00:28:08;;;;;;;;;;;29.30;93.50;29.20;99864.00;;;;344615;28;83973;-92
2023/08/21 00:28:20;;;;;;;;;;;29.30;93.50;29.20;99872.00;;;;344456;28;90313;-92
2023/08/21 00:28:33;;;;;;;;;;;29.30;93.50;29.10;99866.00;;;;346145;28;82469;-92
2023/08/21 00:28:45;;;;;;;;;;;29.30;93.50;29.20;99873.00;;;;344650;28;92025;-92
2023/08/21 00:28:56;;;;;;;;;;;29.30;93.50;29.30;99865.00;;;;344948;28;83332;-93
2023/08/21 00:29:08;;;;;;;;;;;29.30;93.50;29.20;99867.00;;;;344335;28;92573;-93
2023/08/21 00:29:20;;;;;;;;;;;29.30;93.50;29.20;99867.00;;;;346401;28;83392;-93
2023/08/21 00:29:32;;;;;;;;;;;29.30;93.50;29.20;99875.00;;;;344543;28;91543;-92
2023/08/21 00:29:44;;;;;;;;;;;29.30;93.50;29.20;99865.00;;;;343430;28;83440;-92
2023/08/21 00:29:57;;;;;;;;;;;29.20;93.50;29.20;99876.00;;;;342988;28;91203;-92
2023/08/21 00:30:09;;;;;;;;;;;29.30;93.60;29.20;99861.00;;;;344828;28;83415;-92
2023/08/21 00:30:21;;;;;;;;;;;29.30;93.60;29.20;99871.00;;;;344257;28;89625;-92
2023/08/21 00:30:33;;;;;;;;;;;29.30;93.50;29.20;99872.00;;;;344597;28;85368;-92
2023/08/21 00:30:44;;;;;;;;;;;29.30;93.50;29.10;99868.00;;;;344674;28;90480;-92
2023/08/21 00:31:00;;;;;;;;;;;29.30;93.50;29.10;99869.00;;;;343334;28;83197;-92
2023/08/21 00:31:13;;;;;;;;;;;29.30;93.60;29.00;99874.00;;;;343907;28;92368;-92
2023/08/21 00:31:24;;;;;;;;;;;29.30;93.60;29.00;99868.00;;;;343427;28;82477;-91
2023/08/21 00:31:36;;;;;;;;;;;29.30;93.60;29.10;99871.00;;;;341649;28;90730;-92
2023/08/21 00:31:48;;;;;;;;;;;29.30;93.60;29.10;99864.00;;;;344815;28;83359;-92
2023/08/21 00:32:00;;;;;;;;;;;29.30;93.60;29.10;99863.00;;;;344250;28;90484;-92
2023/08/21 00:32:12;;;;;;;;;;;29.20;93.70;29.00;99864.00;;;;344654;28;83504;-92
2023/08/21 00:32:24;;;;;;;;;;;29.20;93.70;29.00;99870.00;;;;344825;28;90592;-92
2023/08/21 00:32:36;;;;;;;;;;;29.20;93.70;29.00;99869.00;;;;343150;28;83610;-92
2023/08/21 00:32:48;;;;;;;;;;;29.20;93.60;29.00;99867.00;;;;342969;28;91798;-92
2023/08/21 00:33:00;;;;;;;;;;;29.20;93.60;29.10;99865.00;;;;343187;28;83473;-92
2023/08/21 00:33:12;;;;;;;;;;;29.20;93.50;29.10;99865.00;;;;342930;28;92462;-92
2023/08/21 00:33:24;;;;;;;;;;;29.20;93.50;29.10;99865.00;;;;344396;28;83327;-92
2023/08/21 00:33:37;;;;;;;;;;;29.20;93.60;29.00;99870.00;;;;342670;28;91510;-92
2023/08/21 00:33:49;;;;;;;;;;;29.20;93.70;29.00;99869.00;;;;340782;28;83452;-92
2023/08/21 00:34:00;;;;;;;;;;;29.20;93.70;29.00;99865.00;;;;343850;28;91616;-92
2023/08/21 00:34:12;;;;;;;;;;;29.20;93.70;29.00;99865.00;;;;343588;28;83335;-92
2023/08/21 00:34:24;;;;;;;;;;;29.20;93.70;29.00;99874.00;;;;342854;28;90554;-92
2023/08/21 00:34:36;;;;;;;;;;;29.20;93.70;29.00;99868.00;;;;344375;28;82564;-92
2023/08/21 00:34:48;;;;;;;;;;;29.20;93.70;29.00;99865.00;;;;342617;28;90632;-92
2023/08/21 00:34:59;;;;;;;;;;;29.20;93.60;29.10;99868.00;;;;343450;28;83392;-92
2023/08/21 00:35:11;;;;;;;;;;;29.20;93.50;29.10;99867.00;;;;344308;28;91526;-92
2023/08/21 00:35:23;;;;;;;;;;;29.20;93.50;29.20;99867.00;;;;343479;28;82602;-92
2023/08/21 00:35:35;;;;;;;;;;;29.20;93.60;29.20;99865.00;;;;342683;28;91817;-92
2023/08/21 00:35:46;;;;;;;;;;;29.20;93.60;29.20;99861.00;;;;343456;28;82504;-92
2023/08/21 00:35:58;;;;;;;;;;;29.20;93.50;29.30;99868.00;;;;340326;28;90181;-92
2023/08/21 00:36:10;;;;;;;;;;;29.20;93.60;29.20;99861.00;;;;342082;28;83445;-91
2023/08/21 00:36:22;;;;;;;;;;;29.20;93.60;29.20;99869.00;;;;342239;28;91588;-92
2023/08/21 00:36:34;;;;;;;;;;;29.20;93.60;29.30;99866.00;;;;342088;28;82484;-92
2023/08/21 00:36:46;;;;;;;;;;;29.20;93.60;29.40;99859.00;;;;341279;28;91161;-92
2023/08/21 00:36:58;;;;;;;;;;;29.30;93.60;29.30;99858.00;;;;344852;28;83433;-92
2023/08/21 00:37:10;;;;;;;;;;;29.30;93.60;29.20;99869.00;;;;345502;28;91692;-92
2023/08/21 00:37:23;;;;;;;;;;;29.30;93.60;29.20;99862.00;;;;343025;28;83712;-92
2023/08/21 00:37:35;;;;;;;;;;;29.30;93.60;29.20;99864.00;;;;342798;28;90789;-92
2023/08/21 00:37:50;;;;;;;;;;;29.20;93.50;29.30;99861.00;;;;342086;28;83515;-92
2023/08/21 00:38:02;;;;;;;;;;;29.30;93.50;29.20;99870.00;;;;345263;28;91497;-92
2023/08/21 00:38:14;;;;;;;;;;;29.30;93.50;29.10;99864.00;;;;343436;28;82557;-92
2023/08/21 00:38:26;;;;;;;;;;;29.30;93.80;29.10;99865.00;;;;341682;28;91547;-92
2023/08/21 00:38:38;;;;;;;;;;;29.30;93.60;29.20;99873.00;;;;344742;28;83446;-92
2023/08/21 00:38:50;;;;;;;;;;;29.30;93.60;29.20;99869.00;;;;344547;28;90180;-92
2023/08/21 00:39:02;;;;;;;;;;;29.30;93.50;29.20;99863.00;;;;344747;28;83506;-92
2023/08/21 00:39:14;;;;;;;;;;;29.30;93.50;29.20;99868.00;;;;344230;28;92435;-93
2023/08/21 00:39:25;;;;;;;;;;;29.20;93.50;29.20;99866.00;;;;344549;28;82592;-92
2023/08/21 00:39:37;;;;;;;;;;;29.20;93.50;29.30;99864.00;;;;342281;28;90999;-92
2023/08/21 00:39:49;;;;;;;;;;;29.30;93.60;29.20;99867.00;;;;341440;28;82591;-92
2023/08/21 00:40:01;;;;;;;;;;;29.30;93.60;29.10;99862.00;;;;342659;28;90434;-93
2023/08/21 00:40:13;;;;;;;;;;;29.30;93.60;29.20;99872.00;;;;344796;28;83242;-92
2023/08/21 00:40:25;;;;;;;;;;;29.30;93.60;29.20;99863.00;;;;345742;28;90750;-91
2023/08/21 00:40:37;;;;;;;;;;;29.30;93.60;29.20;99866.00;;;;344762;28;82633;-92
2023/08/21 00:40:49;;;;;;;;;;;29.30;93.70;29.10;99863.00;;;;344369;28;91597;-92
2023/08/21 00:41:01;;;;;;;;;;;29.20;93.70;29.20;99864.00;;;;343448;28;83473;-93
2023/08/21 00:41:13;;;;;;;;;;;29.20;93.60;29.20;99871.00;;;;342873;28;92450;-92
2023/08/21 00:41:25;;;;;;;;;;;29.20;93.60;29.30;99864.00;;;;342081;28;82429;-92
2023/08/21 00:41:37;;;;;;;;;;;29.30;93.60;29.20;99865.00;;;;344386;28;91341;-92
2023/08/21 00:41:49;;;;;;;;;;;29.30;93.60;29.20;99869.00;;;;344878;28;82540;-92
2023/08/21 00:42:01;;;;;;;;;;;29.30;93.60;29.20;99861.00;;;;343014;28;91584;-92
2023/08/21 00:42:12;;;;;;;;;;;29.30;93.60;29.10;99858.00;;;;343378;28;82553;-92
2023/08/21 00:42:24;;;;;;;;;;;29.20;93.60;29.10;99861.00;;;;344414;28;89641;-91
2023/08/21 00:42:36;;;;;;;;;;;29.30;93.60;29.10;99862.00;;;;345456;28;82637;-92
2023/08/21 00:42:48;;;;;;;;;;;29.30;93.60;29.00;99867.00;;;;342938;28;91821;-92
2023/08/21 00:43:00;;;;;;;;;;;29.20;93.60;29.10;99861.00;;;;343495;28;83237;-92
2023/08/21 00:43:12;;;;;;;;;;;29.20;93.60;29.10;99868.00;;;;345268;28;92540;-92
2023/08/21 00:43:24;;;;;;;;;;;29.20;93.60;29.00;99869.00;;;;345774;28;83555;-93
2023/08/21 00:43:36;;;;;;;;;;;29.20;93.70;29.00;99867.00;;;;344653;28;91554;-92
2023/08/21 00:43:47;;;;;;;;;;;29.20;93.70;28.90;99867.00;;;;343421;28;82654;-91
2023/08/21 00:43:59;;;;;;;;;;;29.20;93.70;29.00;99861.00;;;;344250;28;91651;-92
2023/08/21 00:44:11;;;;;;;;;;;29.20;93.70;29.00;99863.00;;;;343564;28;83119;-92
2023/08/21 00:44:23;;;;;;;;;;;29.20;93.60;29.00;99867.00;;;;343005;28;91485;-92
2023/08/21 00:44:35;;;;;;;;;;;29.20;93.60;29.10;99868.00;;;;345583;28;83345;-92
2023/08/21 00:44:47;;;;;;;;;;;29.20;93.60;29.00;99869.00;;;;345648;28;91747;-91
2023/08/21 00:44:58;;;;;;;;;;;29.20;93.70;29.00;99868.00;;;;343423;28;83468;-92
2023/08/21 00:45:11;;;;;;;;;;;29.20;93.80;29.20;99865.00;;;;341610;28;92212;-92
2023/08/21 00:45:23;;;;;;;;;;;29.20;93.70;29.20;99870.00;;;;346113;28;83532;-92
2023/08/21 00:45:35;;;;;;;;;;;29.20;93.70;29.10;99869.00;;;;342909;28;89639;-92
2023/08/21 00:45:47;;;;;;;;;;;29.20;93.80;29.00;99861.00;;;;341060;28;83369;-92
2023/08/21 00:45:58;;;;;;;;;;;29.20;93.80;28.90;99869.00;;;;342778;28;90868;-93
2023/08/21 00:46:10;;;;;;;;;;;29.20;93.80;29.00;99864.00;;;;344675;28;83438;-92
2023/08/21 00:46:22;;;;;;;;;;;29.20;93.80;29.00;99866.00;;;;342981;28;91308;-92
2023/08/21 00:46:34;;;;;;;;;;;29.20;93.80;29.00;99867.00;;;;346178;28;82471;-92
2023/08/21 00:46:46;;;;;;;;;;;29.20;93.80;29.10;99872.00;;;;345701;28;91639;-92
2023/08/21 00:46:58;;;;;;;;;;;29.10;93.80;29.10;99868.00;;;;343428;28;83393;-92
2023/08/21 00:47:10;;;;;;;;;;;29.20;93.80;29.20;99862.00;;;;345682;28;92894;-92
2023/08/21 00:47:22;;;;;;;;;;;29.20;93.80;29.20;99865.00;;;;343434;28;83424;-92
2023/08/21 00:47:35;;;;;;;;;;;29.20;94.10;29.20;99864.00;;;;345757;28;90652;-92
2023/08/21 00:47:47;;;;;;;;;;;29.20;93.80;29.10;99867.00;;;;346031;28;82392;-92
2023/08/21 00:47:59;;;;;;;;;;;29.20;93.80;29.20;99874.00;;;;345370;28;91900;-92
2023/08/21 00:48:11;;;;;;;;;;;29.20;93.80;29.20;99868.00;;;;348703;27;83482;-92
2023/08/21 00:48:23;;;;;;;;;;;29.20;93.70;29.10;99864.00;;;;341744;28;90532;-92
2023/08/21 00:48:35;;;;;;;;;;;29.10;93.70;29.00;99866.00;;;;345694;28;83692;-93
2023/08/21 00:48:47;;;;;;;;;;;29.20;93.90;29.00;99857.00;;;;345678;28;91869;-92
2023/08/21 00:48:59;;;;;;;;;;;29.20;94.00;29.00;99862.00;;;;344791;28;83457;-92
2023/08/21 00:49:11;;;;;;;;;;;29.20;93.90;29.00;99864.00;;;;345417;28;91116;-92
2023/08/21 00:49:22;;;;;;;;;;;29.20;94.20;29.00;99866.00;;;;343413;28;82461;-92
2023/08/21 00:49:34;;;;;;;;;;;29.20;93.90;29.00;99867.00;;;;344376;28;90719;-92
2023/08/21 00:49:46;;;;;;;;;;;29.10;93.80;28.90;99867.00;;;;344734;28;83379;-92
2023/08/21 00:49:58;;;;;;;;;;;29.10;93.80;29.00;99863.00;;;;344156;28;91770;-92
2023/08/21 00:50:11;;;;;;;;;;;29.10;93.80;29.10;99867.00;;;;344816;28;82629;-92
2023/08/21 00:50:23;;;;;;;;;;;29.20;93.90;29.10;99860.00;;;;345553;28;89700;-92
2023/08/21 00:50:35;;;;;;;;;;;29.20;93.90;29.10;99865.00;;;;341925;28;83471;-92
2023/08/21 00:50:47;;;;;;;;;;;29.10;93.90;29.20;99867.00;;;;343076;28;91450;-92
2023/08/21 00:50:58;;;;;;;;;;;29.10;93.90;29.20;99867.00;;;;345874;28;83607;-93
2023/08/21 00:51:10;;;;;;;;;;;29.20;93.90;29.20;99865.00;;;;343028;28;89681;-92
2023/08/21 00:51:22;;;;;;;;;;;29.20;93.90;29.10;99867.00;;;;344897;28;83293;-92
2023/08/21 00:51:34;;;;;;;;;;;29.20;93.90;29.10;99869.00;;;;343000;28;91432;-91
2023/08/21 00:51:47;;;;;;;;;;;29.20;93.90;29.10;99860.00;;;;344846;28;83371;-92
2023/08/21 00:51:58;;;;;;;;;;;29.20;93.90;29.10;99868.00;;;;347136;28;89107;-92
2023/08/21 00:52:11;;;;;;;;;;;29.20;94.00;29.10;99862.00;;;;344835;28;82457;-91
2023/08/21 00:52:22;;;;;;;;;;;29.20;94.00;29.10;99864.00;;;;340251;28;90228;-92
2023/08/21 00:52:34;;;;;;;;;;;29.10;93.90;29.00;99869.00;;;;343316;28;83347;-92
2023/08/21 00:52:47;;;;;;;;;;;29.10;93.90;29.00;99865.00;;;;343012;28;90150;-92
2023/08/21 00:52:59;;;;;;;;;;;29.20;94.00;29.10;99859.00;;;;342295;28;82432;-92
2023/08/21 00:53:11;;;;;;;;;;;29.20;93.90;29.20;99859.00;;;;345127;28;92528;-91
2023/08/21 00:53:23;;;;;;;;;;;29.20;93.90;29.20;99864.00;;;;345034;28;82498;-92
2023/08/21 00:53:35;;;;;;;;;;;29.10;93.90;29.10;99860.00;;;;344172;28;91245;-92
2023/08/21 00:53:47;;;;;;;;;;;29.20;93.90;29.10;99859.00;;;;344846;28;83323;-93
2023/08/21 00:53:59;;;;;;;;;;;29.20;94.00;29.20;99863.00;;;;342751;28;91250;-92
2023/08/21 00:54:10;;;;;;;;;;;29.10;93.90;29.10;99862.00;;;;343170;28;83537;-92
2023/08/21 00:54:22;;;;;;;;;;;29.10;93.90;29.10;99865.00;;;;345659;28;90523;-92
2023/08/21 00:54:34;;;;;;;;;;;29.20;93.90;29.20;99868.00;;;;344729;28;83450;-92
2023/08/21 00:54:46;;;;;;;;;;;29.20;93.90;29.20;99858.00;;;;346047;28;90222;-92
2023/08/21 00:54:58;;;;;;;;;;;29.20;93.90;29.00;99865.00;;;;347567;28;83596;-92
2023/08/21 00:55:09;;;;;;;;;;;29.20;93.90;28.90;99864.00;;;;345714;28;92328;-92
2023/08/21 00:55:21;;;;;;;;;;;29.20;94.10;28.90;99862.00;;;;346139;28;83403;-92
2023/08/21 00:55:33;;;;;;;;;;;29.10;94.00;28.90;99861.00;;;;343711;28;92045;-92
2023/08/21 00:55:45;;;;;;;;;;;29.20;94.10;28.90;99867.00;;;;343942;28;83467;-92
2023/08/21 00:55:57;;;;;;;;;;;29.10;94.10;28.90;99865.00;;;;345423;28;90465;-92
2023/08/21 00:56:09;;;;;;;;;;;29.10;94.00;29.10;99864.00;;;;343082;28;82622;-92
2023/08/21 00:56:21;;;;;;;;;;;29.10;94.00;29.00;99865.00;;;;345534;28;89582;-92
2023/08/21 00:56:32;;;;;;;;;;;29.10;94.00;28.90;99859.00;;;;346109;28;82483;-92
2023/08/21 00:56:44;;;;;;;;;;;29.10;94.00;28.80;99868.00;;;;342521;28;91978;-92
2023/08/21 00:56:56;;;;;;;;;;;29.10;94.10;28.90;99867.00;;;;342038;28;82495;-92
2023/08/21 00:57:08;;;;;;;;;;;29.10;94.00;29.00;99865.00;;;;342915;28;91576;-92
2023/08/21 00:57:20;;;;;;;;;;;29.10;94.10;29.10;99867.00;;;;343057;28;82614;-92
2023/08/21 00:57:32;;;;;;;;;;;29.10;94.10;29.10;99866.00;;;;344328;28;91622;-92
2023/08/21 00:57:44;;;;;;;;;;;29.10;94.10;29.10;99868.00;;;;344806;28;83343;-92
2023/08/21 00:57:56;;;;;;;;;;;29.10;94.10;29.10;99867.00;;;;342801;28;90663;-91
2023/08/21 00:58:12;;;;;;;;;;;29.10;94.00;29.00;99871.00;;;;343994;28;83512;-92
2023/08/21 00:58:24;;;;;;;;;;;29.10;94.00;29.00;99864.00;;;;347226;28;90295;-92
2023/08/21 00:58:36;;;;;;;;;;;29.10;94.00;29.00;99871.00;;;;347435;28;83500;-92
2023/08/21 00:58:48;;;;;;;;;;;29.10;94.00;29.00;99871.00;;;;344406;28;91756;-93
2023/08/21 00:58:59;;;;;;;;;;;29.10;94.00;29.10;99874.00;;;;346094;28;83564;-92
2023/08/21 00:59:12;;;;;;;;;;;29.10;94.10;29.00;99865.00;;;;345643;28;92239;-92
2023/08/21 00:59:24;;;;;;;;;;;29.10;94.10;29.00;99863.00;;;;345458;28;83412;-93
2023/08/21 00:59:37;;;;;;;;;;;29.10;94.10;29.10;99871.00;;;;345369;28;91411;-93
2023/08/21 00:59:49;;;;;;;;;;;29.10;94.10;29.00;99867.00;;;;346153;28;83439;-93
2023/08/21 01:00:01;;;;;;;;;;;29.10;94.20;28.90;99865.00;;;;344068;28;90456;-92
2023/08/21 01:00:13;;;;;;;;;;;29.10;94.20;28.80;99866.00;;;;343189;28;83430;-93
2023/08/21 01:00:25;;;;;;;;;;;29.10;94.20;28.90;99863.00;;;;341625;28;90894;-93
2023/08/21 01:00:37;;;;;;;;;;;29.10;94.20;28.90;99864.00;;;;341943;28;83504;-93
2023/08/21 01:00:52;;;;;;;;;;;29.10;94.20;28.90;99865.00;;;;343058;28;90241;-93
2023/08/21 01:01:04;;;;;;;;;;;29.10;94.20;29.00;99874.00;;;;342891;28;83526;-92
2023/08/21 01:01:16;;;;;;;;;;;29.10;94.20;29.00;99868.00;;;;341398;28;92520;-92
2023/08/21 01:01:28;;;;;;;;;;;29.10;94.20;29.00;99868.00;;;;342814;28;85186;-93
2023/08/21 01:01:40;;;;;;;;;;;29.00;94.20;29.00;99869.00;;;;342204;28;90673;-93
2023/08/21 01:01:52;;;;;;;;;;;29.10;94.20;29.00;99868.00;;;;341937;28;83259;-92
2023/08/21 01:02:04;;;;;;;;;;;29.00;94.10;28.90;99864.00;;;;342642;28;91419;-93